createdAt,value
2022-10-18T00:01:09.600Z,15.40
2022-10-18T00:03:38.624Z,15.40
2022-10-18T00:06:09.091Z,15.30
2022-10-18T00:08:38.419Z,15.30
2022-10-18T00:11:07.541Z,15.30
2022-10-18T00:13:37.640Z,15.30
2022-10-18T00:16:10.896Z,15.30
2022-10-18T00:18:39.084Z,15.30
2022-10-18T00:21:09.594Z,15.30
2022-10-18T00:23:38.459Z,15.30
2022-10-18T00:26:09.292Z,15.30
2022-10-18T00:28:39.751Z,15.30
2022-10-18T00:31:12.537Z,15.30
2022-10-18T00:33:41.224Z,15.30
2022-10-18T00:36:09.461Z,15.30
2022-10-18T00:38:38.080Z,15.30
2022-10-18T00:41:08.446Z,15.30
2022-10-18T00:43:53.856Z,15.30
2022-10-18T00:46:22.132Z,15.30
2022-10-18T00:48:50.862Z,15.30
2022-10-18T00:51:21.724Z,15.30
2022-10-18T00:53:50.448Z,15.30
2022-10-18T00:56:19.127Z,15.30
2022-10-18T00:58:48.750Z,15.30
2022-10-18T01:01:18.655Z,15.30
2022-10-18T01:03:47.223Z,15.30
2022-10-18T01:06:15.418Z,15.30
2022-10-18T01:08:52.028Z,15.30
2022-10-18T01:11:35.582Z,15.30
2022-10-18T01:14:16.242Z,15.30
2022-10-18T01:16:50.466Z,15.20
2022-10-18T01:19:48.417Z,15.30
2022-10-18T01:22:23.384Z,15.30
2022-10-18T01:27:52.035Z,15.20
2022-10-18T01:30:44.494Z,15.20
2022-10-18T01:33:21.424Z,15.20
2022-10-18T01:35:54.529Z,15.20
2022-10-18T01:38:24.919Z,15.20
2022-10-18T01:40:54.396Z,15.20
2022-10-18T01:43:24.354Z,15.20
2022-10-18T01:45:55.872Z,15.20
2022-10-18T01:48:24.854Z,15.20
2022-10-18T01:50:54.087Z,15.20
2022-10-18T01:53:24.412Z,15.20
2022-10-18T01:56:02.843Z,15.20
2022-10-18T01:58:39.525Z,15.10
2022-10-18T02:01:14.799Z,15.20
2022-10-18T02:03:48.813Z,15.20
2022-10-18T02:06:22.782Z,15.20
2022-10-18T02:08:55.249Z,15.10
2022-10-18T02:11:23.652Z,15.10
2022-10-18T02:13:55.088Z,15.10
2022-10-18T02:16:29.557Z,15.10
2022-10-18T02:19:01.806Z,15.10
2022-10-18T02:21:31.812Z,15.10
2022-10-18T02:24:02.155Z,15.10
2022-10-18T02:26:31.117Z,15.10
2022-10-18T02:28:59.307Z,15.10
2022-10-18T02:31:34.282Z,15.10
2022-10-18T02:34:07.622Z,15.10
2022-10-18T02:36:39.682Z,15.10
2022-10-18T02:39:14.341Z,15.10
2022-10-18T02:41:43.349Z,15.10
2022-10-18T02:44:12.052Z,15.10
2022-10-18T02:46:42.221Z,15.10
2022-10-18T02:49:10.400Z,15.10
2022-10-18T02:51:38.541Z,15.10
2022-10-18T02:54:08.381Z,15.10
2022-10-18T02:56:37.251Z,15.20
2022-10-18T02:59:07.370Z,15.20
2022-10-18T03:01:36.259Z,15.10
2022-10-18T03:04:06.570Z,15.10
2022-10-18T03:06:35.030Z,15.10
2022-10-18T03:09:04.596Z,15.10
2022-10-18T03:11:33.064Z,15.10
2022-10-18T03:14:01.228Z,15.10
2022-10-18T03:16:29.646Z,15.10
2022-10-18T03:18:57.784Z,15.10
2022-10-18T03:21:27.375Z,15.10
2022-10-18T03:23:56.115Z,15.10
2022-10-18T03:26:24.263Z,15.10
2022-10-18T03:28:52.491Z,15.10
2022-10-18T03:31:20.879Z,15.10
2022-10-18T03:33:49.492Z,15.10
2022-10-18T03:36:17.953Z,15.10
2022-10-18T03:38:47.542Z,15.10
2022-10-18T03:41:15.761Z,15.10
2022-10-18T03:43:43.957Z,15.10
2022-10-18T03:46:12.105Z,15.10
2022-10-18T03:48:40.305Z,15.10
2022-10-18T03:51:08.517Z,15.10
2022-10-18T03:53:36.724Z,15.10
2022-10-18T03:56:06.802Z,15.10
2022-10-18T03:58:34.972Z,15.10
2022-10-18T04:01:03.209Z,15.10
2022-10-18T04:03:31.462Z,15.20
2022-10-18T04:06:00.841Z,15.10
2022-10-18T04:08:28.990Z,15.10
2022-10-18T04:10:57.178Z,15.10
2022-10-18T04:13:26.773Z,15.20
2022-10-18T04:15:54.950Z,15.20
2022-10-18T04:18:23.184Z,15.20
2022-10-18T04:20:51.397Z,15.20
2022-10-18T04:23:19.857Z,15.20
2022-10-18T04:25:48.027Z,15.20
2022-10-18T04:28:16.215Z,15.20
2022-10-18T04:30:49.966Z,15.20
2022-10-18T04:33:18.236Z,15.20
2022-10-18T04:35:46.989Z,15.20
2022-10-18T04:38:15.391Z,15.20
2022-10-18T04:40:43.543Z,15.20
2022-10-18T04:43:11.727Z,15.20
2022-10-18T04:45:39.880Z,15.20
2022-10-18T04:48:09.713Z,15.20
2022-10-18T04:50:37.877Z,15.20
2022-10-18T04:53:15.624Z,15.20
2022-10-18T04:55:46.205Z,15.20
2022-10-18T04:58:14.395Z,15.20
2022-10-18T05:00:43.489Z,15.20
2022-10-18T05:03:14.373Z,15.20
2022-10-18T05:06:00.950Z,15.20
2022-10-18T05:08:30.344Z,15.20
2022-10-18T05:10:58.584Z,15.20
2022-10-18T05:13:26.946Z,15.20
2022-10-18T05:15:55.226Z,15.20
2022-10-18T05:18:25.077Z,15.20
2022-10-18T05:20:53.324Z,15.20
2022-10-18T05:23:21.503Z,15.20
2022-10-18T05:25:49.729Z,15.20
2022-10-18T05:31:08.102Z,15.20
2022-10-18T05:33:37.801Z,15.20
2022-10-18T05:36:06.301Z,15.20
2022-10-18T05:41:07.725Z,15.10
2022-10-18T05:43:36.112Z,15.20
2022-10-18T05:46:06.505Z,15.20
2022-10-18T05:48:38.815Z,15.10
2022-10-18T05:51:08.017Z,15.10
2022-10-18T05:53:37.447Z,15.10
2022-10-18T05:56:07.029Z,15.10
2022-10-18T05:58:35.688Z,15.10
2022-10-18T06:01:05.719Z,15.10
2022-10-18T06:03:34.149Z,15.10
2022-10-18T06:06:05.005Z,15.00
2022-10-18T06:08:33.718Z,15.00
2022-10-18T06:11:07.146Z,15.00
2022-10-18T06:13:35.410Z,15.00
2022-10-18T06:16:03.526Z,14.90
2022-10-18T06:18:31.667Z,14.90
2022-10-18T06:21:00.698Z,14.90
2022-10-18T06:23:30.506Z,15.00
2022-10-18T06:26:00.455Z,15.00
2022-10-18T06:28:29.649Z,15.00
2022-10-18T06:30:58.430Z,15.00
2022-10-18T06:33:26.915Z,15.00
2022-10-18T06:35:59.689Z,15.00
2022-10-18T06:38:30.013Z,15.00
2022-10-18T06:40:59.109Z,15.10
2022-10-18T06:43:27.405Z,15.10
2022-10-18T06:45:56.019Z,15.10
2022-10-18T06:48:24.494Z,15.20
2022-10-18T06:50:57.306Z,15.20
2022-10-18T06:53:26.092Z,15.20
2022-10-18T06:56:00.912Z,15.20
2022-10-18T06:58:29.413Z,15.20
2022-10-18T07:00:57.777Z,15.20
2022-10-18T07:03:26.977Z,15.20
2022-10-18T07:05:55.177Z,15.20
2022-10-18T07:08:23.330Z,15.20
2022-10-18T07:10:56.087Z,15.20
2022-10-18T07:13:32.362Z,15.20
2022-10-18T07:16:03.043Z,15.20
2022-10-18T07:18:31.465Z,15.20
2022-10-18T07:21:02.743Z,15.20
2022-10-18T07:23:30.968Z,15.20
2022-10-18T07:26:00.921Z,15.20
2022-10-18T07:28:29.678Z,15.30
2022-10-18T07:31:01.207Z,15.30
2022-10-18T07:33:32.012Z,15.30
2022-10-18T07:36:02.464Z,15.30
2022-10-18T07:38:30.707Z,15.30
2022-10-18T07:41:01.291Z,15.40
2022-10-18T07:43:29.747Z,15.40
2022-10-18T07:45:59.920Z,15.40
2022-10-18T07:48:28.820Z,15.40
2022-10-18T07:50:59.808Z,15.50
2022-10-18T07:53:28.654Z,15.50
2022-10-18T07:56:02.448Z,15.50
2022-10-18T07:58:33.605Z,15.50
2022-10-18T08:01:04.430Z,15.50
2022-10-18T08:03:33.073Z,15.50
2022-10-18T08:06:01.533Z,15.60
2022-10-18T08:08:30.547Z,15.60
2022-10-18T08:11:05.632Z,15.60
2022-10-18T08:13:34.006Z,15.80
2022-10-18T08:16:03.084Z,15.90
2022-10-18T08:18:31.696Z,15.90
2022-10-18T08:21:01.916Z,16.00
2022-10-18T08:23:30.122Z,16.00
2022-10-18T08:25:58.338Z,16.00
2022-10-18T08:28:28.065Z,16.00
2022-10-18T08:30:56.279Z,16.10
2022-10-18T08:33:24.732Z,16.10
2022-10-18T08:35:56.507Z,16.10
2022-10-18T08:38:25.242Z,16.00
2022-10-18T08:40:53.681Z,16.00
2022-10-18T08:43:32.888Z,16.00
2022-10-18T08:46:01.644Z,16.00
2022-10-18T08:48:36.775Z,16.00
2022-10-18T08:51:07.909Z,16.00
2022-10-18T08:53:45.962Z,16.00
2022-10-18T08:56:15.545Z,16.00
2022-10-18T08:58:45.640Z,16.00
2022-10-18T09:01:26.333Z,15.90
2022-10-18T09:04:15.388Z,15.90
2022-10-18T09:06:50.417Z,15.90
2022-10-18T09:09:29.315Z,15.90
2022-10-18T09:12:09.996Z,16.00
2022-10-18T09:15:02.354Z,16.00
2022-10-18T09:17:40.071Z,16.10
2022-10-18T09:20:21.905Z,16.20
2022-10-18T09:22:56.549Z,16.30
2022-10-18T09:25:26.831Z,16.40
2022-10-18T09:27:58.225Z,16.40
2022-10-18T09:30:38.146Z,16.40
2022-10-18T09:33:19.557Z,16.30
2022-10-18T09:35:53.561Z,16.30
2022-10-18T09:41:03.411Z,16.30
2022-10-18T09:43:46.989Z,16.20
2022-10-18T09:46:18.207Z,16.20
2022-10-18T09:48:50.338Z,16.20
2022-10-18T09:51:22.776Z,16.20
2022-10-18T09:54:16.401Z,16.30
2022-10-18T09:56:49.113Z,16.30
2022-10-18T09:59:38.621Z,16.50
2022-10-18T10:02:13.197Z,16.50
2022-10-18T10:04:41.530Z,16.50
2022-10-18T10:07:13.178Z,16.60
2022-10-18T10:09:46.256Z,16.60
2022-10-18T10:12:31.137Z,16.60
2022-10-18T10:15:10.674Z,16.70
2022-10-18T10:17:40.186Z,16.70
2022-10-18T10:20:19.808Z,16.90
2022-10-18T10:22:49.017Z,17.00
2022-10-18T10:25:29.628Z,17.10
2022-10-18T10:28:04.271Z,17.00
2022-10-18T10:30:36.272Z,16.90
2022-10-18T10:33:07.309Z,16.80
2022-10-18T10:35:53.878Z,16.80
2022-10-18T10:38:26.512Z,16.80
2022-10-18T10:40:55.964Z,16.70
2022-10-18T10:43:42.773Z,16.60
2022-10-18T10:46:13.207Z,16.70
2022-10-18T10:48:50.610Z,16.70
2022-10-18T10:51:29.921Z,16.90
2022-10-18T10:54:03.312Z,16.90
2022-10-18T10:56:33.841Z,17.00
2022-10-18T10:59:11.244Z,17.00
2022-10-18T11:01:39.472Z,17.10
2022-10-18T11:04:28.186Z,17.10
2022-10-18T11:07:05.682Z,17.10
2022-10-18T11:09:43.602Z,17.20
2022-10-18T11:12:26.937Z,17.20
2022-10-18T11:15:10.146Z,17.40
2022-10-18T11:17:45.097Z,17.30
2022-10-18T11:20:22.102Z,17.00
2022-10-18T11:23:01.167Z,16.90
2022-10-18T11:25:49.197Z,17.00
2022-10-18T11:28:24.890Z,17.10
2022-10-18T11:31:09.221Z,17.00
2022-10-18T11:34:08.350Z,17.10
2022-10-18T11:37:08.927Z,17.30
2022-10-18T11:39:47.727Z,17.40
2022-10-18T11:42:25.852Z,17.30
2022-10-18T11:45:05.113Z,17.30
2022-10-18T11:47:40.519Z,17.40
2022-10-18T11:50:19.227Z,17.50
2022-10-18T11:52:57.468Z,17.50
2022-10-18T11:55:37.976Z,17.40
2022-10-18T11:58:25.349Z,17.30
2022-10-18T12:00:58.124Z,17.30
2022-10-18T12:03:38.643Z,17.30
2022-10-18T12:06:12.453Z,17.20
2022-10-18T12:08:45.543Z,17.30
2022-10-18T12:11:18.812Z,17.40
2022-10-18T12:13:50.543Z,17.30
2022-10-18T12:16:38.994Z,17.40
2022-10-18T12:19:23.432Z,17.40
2022-10-18T12:21:56.606Z,17.40
2022-10-18T12:24:28.913Z,17.40
2022-10-18T12:27:01.838Z,17.40
2022-10-18T12:29:38.173Z,17.50
2022-10-18T12:32:11.993Z,17.60
2022-10-18T12:34:44.724Z,17.70
2022-10-18T12:37:26.498Z,17.80
2022-10-18T12:40:18.844Z,17.70
2022-10-18T12:42:51.368Z,17.80
2022-10-18T12:45:30.248Z,17.80
2022-10-18T12:48:01.604Z,17.80
2022-10-18T12:50:34.786Z,17.90
2022-10-18T12:53:22.874Z,17.80
2022-10-18T12:55:53.820Z,17.70
2022-10-18T12:58:31.277Z,17.60
2022-10-18T13:01:02.314Z,17.60
2022-10-18T13:03:57.003Z,17.60
2022-10-18T13:06:25.713Z,17.60
2022-10-18T13:09:20.154Z,17.60
2022-10-18T13:11:51.046Z,17.50
2022-10-18T13:15:05.739Z,17.50
2022-10-18T13:17:47.256Z,17.40
2022-10-18T13:20:27.237Z,17.40
2022-10-18T13:23:11.304Z,17.50
2022-10-18T13:25:52.551Z,17.50
2022-10-18T13:28:31.292Z,17.50
2022-10-18T13:31:05.225Z,17.50
2022-10-18T13:33:36.020Z,17.50
2022-10-18T13:36:07.667Z,17.50
2022-10-18T13:38:42.256Z,17.40
2022-10-18T13:41:13.950Z,17.30
2022-10-18T13:44:28.374Z,17.30
2022-10-18T13:47:38.962Z,17.20
2022-10-18T13:50:33.995Z,17.10
2022-10-18T13:53:38.107Z,17.00
2022-10-18T13:56:26.367Z,17.00
2022-10-18T13:59:16.505Z,17.00
2022-10-18T14:01:59.178Z,17.00
2022-10-18T14:04:52.733Z,17.00
2022-10-18T14:07:21.768Z,16.90
2022-10-18T14:09:56.103Z,16.90
2022-10-18T14:12:31.941Z,16.90
2022-10-18T14:15:08.645Z,17.00
2022-10-18T14:17:42.804Z,17.00
2022-10-18T14:20:29.337Z,17.10
2022-10-18T14:23:05.145Z,17.10
2022-10-18T14:25:36.687Z,17.10
2022-10-18T14:28:10.104Z,17.10
2022-10-18T14:30:56.001Z,17.10
2022-10-18T14:33:33.703Z,17.10
2022-10-18T14:36:08.143Z,17.10
2022-10-18T14:38:45.592Z,17.10
2022-10-18T14:41:17.200Z,17.10
2022-10-18T14:43:46.636Z,17.00
2022-10-18T14:46:22.069Z,17.00
2022-10-18T14:48:56.170Z,17.00
2022-10-18T14:51:24.731Z,17.10
2022-10-18T14:53:53.744Z,17.10
2022-10-18T14:56:26.524Z,17.20
2022-10-18T14:58:56.743Z,17.10
2022-10-18T15:01:28.661Z,17.10
2022-10-18T15:03:59.818Z,17.00
2022-10-18T15:06:28.655Z,16.90
2022-10-18T15:08:58.828Z,16.90
2022-10-18T15:11:28.303Z,17.00
2022-10-18T15:13:58.965Z,16.90
2022-10-18T15:16:30.928Z,17.00
2022-10-18T15:19:06.942Z,16.90
2022-10-18T15:21:36.253Z,16.90
2022-10-18T15:24:33.036Z,16.80
2022-10-18T15:27:15.170Z,16.80
2022-10-18T15:29:44.364Z,16.60
2022-10-18T15:32:20.575Z,16.70
2022-10-18T15:34:50.272Z,16.70
2022-10-18T15:37:28.884Z,16.60
2022-10-18T15:40:19.637Z,16.50
2022-10-18T15:42:48.862Z,16.40
2022-10-18T15:45:32.525Z,16.30
2022-10-18T15:48:03.735Z,16.30
2022-10-18T15:50:44.467Z,16.20
2022-10-18T15:53:42.954Z,16.20
2022-10-18T15:56:31.481Z,16.20
2022-10-18T15:59:04.017Z,16.10
2022-10-18T16:01:39.020Z,16.10
2022-10-18T16:04:13.692Z,16.00
2022-10-18T16:06:43.235Z,15.90
2022-10-18T16:09:16.585Z,15.80
2022-10-18T16:11:44.915Z,15.70
2022-10-18T16:14:13.169Z,15.60
2022-10-18T16:16:42.101Z,15.50
2022-10-18T16:19:14.247Z,15.40
2022-10-18T16:21:43.912Z,15.30
2022-10-18T16:24:12.405Z,15.10
2022-10-18T16:26:40.481Z,15.00
2022-10-18T16:29:13.188Z,14.80
2022-10-18T16:31:41.595Z,14.60
2022-10-18T16:34:11.212Z,14.60
2022-10-18T16:36:39.769Z,14.60
2022-10-18T16:39:16.236Z,14.60
2022-10-18T16:41:44.743Z,14.40
2022-10-18T16:44:13.276Z,14.20
2022-10-18T16:46:41.958Z,14.00
2022-10-18T16:51:54.967Z,13.70
2022-10-18T16:54:24.738Z,13.60
2022-10-18T16:56:52.944Z,13.40
2022-10-18T16:59:25.261Z,13.40
2022-10-18T17:01:53.524Z,13.40
2022-10-18T17:04:21.840Z,13.40
2022-10-18T17:06:50.084Z,13.30
2022-10-18T17:09:18.205Z,13.20
2022-10-18T17:11:47.895Z,13.20
2022-10-18T17:14:16.030Z,13.10
2022-10-18T17:16:46.645Z,13.00
2022-10-18T17:19:18.228Z,13.00
2022-10-18T17:21:46.337Z,12.90
2022-10-18T17:24:14.502Z,12.80
2022-10-18T17:26:42.785Z,12.70
2022-10-18T17:29:12.410Z,12.70
2022-10-18T17:31:40.641Z,12.70
2022-10-18T17:34:09.023Z,12.70
2022-10-18T17:36:37.212Z,12.60
2022-10-18T17:39:06.235Z,12.60
2022-10-18T17:41:34.424Z,12.60
2022-10-18T17:44:03.995Z,12.50
2022-10-18T17:46:33.639Z,12.40
2022-10-18T17:49:01.769Z,12.40
2022-10-18T17:51:30.102Z,12.30
2022-10-18T17:53:58.237Z,12.30
2022-10-18T17:56:31.075Z,12.20
2022-10-18T17:58:59.256Z,12.20
2022-10-18T18:01:27.827Z,12.10
2022-10-18T18:03:59.690Z,12.10
2022-10-18T18:06:31.248Z,12.10
2022-10-18T18:09:00.275Z,12.00
2022-10-18T18:11:29.358Z,12.00
2022-10-18T18:13:57.872Z,12.00
2022-10-18T18:16:28.384Z,11.90
2022-10-18T18:18:59.280Z,11.90
2022-10-18T18:21:28.054Z,11.80
2022-10-18T18:23:56.500Z,11.80
2022-10-18T18:26:25.228Z,11.70
2022-10-18T18:28:54.036Z,11.70
2022-10-18T18:31:24.536Z,11.60
2022-10-18T18:33:53.387Z,11.60
2022-10-18T18:36:23.772Z,11.60
2022-10-18T18:38:56.889Z,11.50
2022-10-18T18:41:27.207Z,11.50
2022-10-18T18:43:57.648Z,11.40
2022-10-18T18:46:27.075Z,11.40
2022-10-18T18:48:55.736Z,11.40
2022-10-18T18:51:25.587Z,11.50
2022-10-18T18:53:54.259Z,11.40
2022-10-18T18:56:24.334Z,11.40
2022-10-18T18:58:53.616Z,11.30
2022-10-18T19:01:23.291Z,11.30
2022-10-18T19:03:53.065Z,11.30
2022-10-18T19:06:24.836Z,11.20
2022-10-18T19:09:00.276Z,11.20
2022-10-18T19:11:33.307Z,11.20
2022-10-18T19:14:01.639Z,11.10
2022-10-18T19:16:31.571Z,11.10
2022-10-18T19:19:01.483Z,11.10
2022-10-18T19:21:33.483Z,11.10
2022-10-18T19:24:02.085Z,11.10
2022-10-18T19:26:33.549Z,11.00
2022-10-18T19:29:04.908Z,10.90
2022-10-18T19:31:34.841Z,10.80
2022-10-18T19:34:03.829Z,10.80
2022-10-18T19:36:33.848Z,10.70
2022-10-18T19:39:02.508Z,10.80
2022-10-18T19:41:30.788Z,10.80
2022-10-18T19:43:59.147Z,10.70
2022-10-18T19:46:27.703Z,10.80
2022-10-18T19:48:56.068Z,10.70
2022-10-18T19:51:27.923Z,10.70
2022-10-18T19:53:58.914Z,10.70
2022-10-18T19:56:28.881Z,10.70
2022-10-18T19:58:57.532Z,10.60
2022-10-18T20:01:26.676Z,10.60
2022-10-18T20:03:55.804Z,10.50
2022-10-18T20:06:24.279Z,10.50
2022-10-18T20:08:52.756Z,10.50
2022-10-18T20:11:24.207Z,10.40
2022-10-18T20:13:53.127Z,10.40
2022-10-18T20:16:27.674Z,10.30
2022-10-18T20:18:57.575Z,10.30
2022-10-18T20:21:26.102Z,10.30
2022-10-18T20:23:54.301Z,10.30
2022-10-18T20:26:25.452Z,10.10
2022-10-18T20:28:56.813Z,10.10
2022-10-18T20:31:26.864Z,10.20
2022-10-18T20:33:56.958Z,10.10
2022-10-18T20:36:25.566Z,10.10
2022-10-18T20:38:54.871Z,10.00
2022-10-18T20:41:26.923Z,10.00
2022-10-18T20:43:56.859Z,10.00
2022-10-18T20:46:25.654Z,10.00
2022-10-18T20:48:55.149Z,10.10
2022-10-18T20:51:24.045Z,10.00
2022-10-18T20:53:53.342Z,10.00
2022-10-18T20:56:23.243Z,9.90
2022-10-18T20:58:55.119Z,9.90
2022-10-18T21:01:25.537Z,10.00
2022-10-18T21:03:55.894Z,9.90
2022-10-18T21:06:25.645Z,9.80
2022-10-18T21:08:55.545Z,9.80
2022-10-18T21:11:24.622Z,9.80
2022-10-18T21:13:55.850Z,9.80
2022-10-18T21:16:24.152Z,9.90
2022-10-18T21:18:52.393Z,9.70
2022-10-18T21:21:23.251Z,9.70
2022-10-18T21:23:52.100Z,9.70
2022-10-18T21:26:22.527Z,9.60
2022-10-18T21:28:51.645Z,9.60
2022-10-18T21:31:23.764Z,9.60
2022-10-18T21:33:55.157Z,9.60
2022-10-18T21:36:24.217Z,9.60
2022-10-18T21:38:52.921Z,9.50
2022-10-18T21:41:22.876Z,9.50
2022-10-18T21:43:52.265Z,9.40
2022-10-18T21:46:23.447Z,9.40
2022-10-18T21:48:53.180Z,9.40
2022-10-18T21:51:24.366Z,9.30
2022-10-18T21:53:54.216Z,9.30
2022-10-18T21:56:24.164Z,9.20
2022-10-18T21:58:52.374Z,9.20
2022-10-18T22:01:23.416Z,9.20
2022-10-18T22:03:54.318Z,9.10
2022-10-18T22:06:26.774Z,9.10
2022-10-18T22:08:56.095Z,9.10
2022-10-18T22:11:26.969Z,9.10
2022-10-18T22:13:56.027Z,9.00
2022-10-18T22:16:26.047Z,9.00
2022-10-18T22:18:57.921Z,9.00
2022-10-18T22:21:26.527Z,8.90
2022-10-18T22:23:57.128Z,9.00
2022-10-18T22:26:27.785Z,8.80
2022-10-18T22:28:57.774Z,8.80
2022-10-18T22:31:30.055Z,8.90
2022-10-18T22:34:00.380Z,8.80
2022-10-18T22:36:28.872Z,8.80
2022-10-18T22:38:57.479Z,8.80
2022-10-18T22:41:25.947Z,8.80
2022-10-18T22:43:57.305Z,8.70
2022-10-18T22:46:29.569Z,8.70
2022-10-18T22:48:57.821Z,8.70
2022-10-18T22:51:26.167Z,8.60
2022-10-18T22:53:54.369Z,8.60
2022-10-18T22:56:24.079Z,8.60
2022-10-18T22:58:52.867Z,8.50
2022-10-18T23:01:23.397Z,8.60
2022-10-18T23:03:55.433Z,8.40
2022-10-18T23:06:25.969Z,8.50
2022-10-18T23:08:55.600Z,8.40
2022-10-18T23:11:24.649Z,8.40
2022-10-18T23:13:53.162Z,8.40
2022-10-18T23:16:21.593Z,8.40
2022-10-18T23:18:56.014Z,8.40
2022-10-18T23:21:25.668Z,8.30
2022-10-18T23:23:54.850Z,8.40
2022-10-18T23:26:25.538Z,8.30
2022-10-18T23:28:54.462Z,8.30
2022-10-18T23:31:24.591Z,8.20
2022-10-18T23:33:54.443Z,8.10
2022-10-18T23:36:26.342Z,8.20
2022-10-18T23:38:54.915Z,8.20
2022-10-18T23:41:23.725Z,8.20
2022-10-18T23:43:52.500Z,8.20
2022-10-18T23:46:21.077Z,8.20
2022-10-18T23:48:49.719Z,8.10
2022-10-18T23:51:18.584Z,8.10
2022-10-18T23:53:48.598Z,8.00
2022-10-18T23:56:17.976Z,8.00
2022-10-18T23:58:47.153Z,8.00
